sensor_id;sensor_type;location;lat;lon;timestamp;pressure;altitude;pressure_sealevel;temperature;humidity
30152;BME280;16963;26.018;-80.216;2022-08-11T00:00:13;101937.31;;;31.68;60.58
30152;BME280;16963;26.018;-80.216;2022-08-11T00:02:45;101942.16;;;31.65;61.45
30152;BME280;16963;26.018;-80.216;2022-08-11T00:05:17;101937.38;;;31.57;62.00
30152;BME280;16963;26.018;-80.216;2022-08-11T00:07:46;101938.63;;;31.53;61.03
30152;BME280;16963;26.018;-80.216;2022-08-11T00:10:21;101938.88;;;31.50;61.97
30152;BME280;16963;26.018;-80.216;2022-08-11T00:12:55;101939.13;;;31.47;61.56
30152;BME280;16963;26.018;-80.216;2022-08-11T00:15:28;101941.09;;;31.45;62.47
30152;BME280;16963;26.018;-80.216;2022-08-11T00:20:44;101946.53;;;31.45;63.07
30152;BME280;16963;26.018;-80.216;2022-08-11T00:23:17;101946.53;;;31.45;62.45
30152;BME280;16963;26.018;-80.216;2022-08-11T00:25:49;101942.44;;;31.39;62.69
30152;BME280;16963;26.018;-80.216;2022-08-11T00:28:30;101946.75;;;31.42;61.98
30152;BME280;16963;26.018;-80.216;2022-08-11T00:31:07;101943.31;;;31.39;61.76
30152;BME280;16963;26.018;-80.216;2022-08-11T00:33:45;101932.81;;;31.35;61.23
30152;BME280;16963;26.018;-80.216;2022-08-11T00:36:16;101949.75;;;31.27;60.78
30152;BME280;16963;26.018;-80.216;2022-08-11T00:39:12;101945.94;;;31.18;60.96
30152;BME280;16963;26.018;-80.216;2022-08-11T00:42:06;101952.44;;;31.16;61.41
30152;BME280;16963;26.018;-80.216;2022-08-11T00:45:00;101952.09;;;31.09;61.77
30152;BME280;16963;26.018;-80.216;2022-08-11T00:50:25;101948.78;;;31.06;61.58
30152;BME280;16963;26.018;-80.216;2022-08-11T00:53:07;101956.66;;;31.09;61.81
30152;BME280;16963;26.018;-80.216;2022-08-11T01:05:02;101974.66;;;30.98;61.56
30152;BME280;16963;26.018;-80.216;2022-08-11T01:11:14;101979.09;;;30.99;62.47
30152;BME280;16963;26.018;-80.216;2022-08-11T01:14:39;101980.81;;;31.00;61.89
30152;BME280;16963;26.018;-80.216;2022-08-11T01:26:19;101999.56;;;31.04;62.74
30152;BME280;16963;26.018;-80.216;2022-08-11T02:08:41;102018.06;;;30.52;63.53
30152;BME280;16963;26.018;-80.216;2022-08-11T02:11:32;102019.16;;;30.49;63.19
30152;BME280;16963;26.018;-80.216;2022-08-11T02:19:57;102020.38;;;30.56;63.44
30152;BME280;16963;26.018;-80.216;2022-08-11T02:23:01;102031.47;;;30.53;62.99
30152;BME280;16963;26.018;-80.216;2022-08-11T02:26:40;102043.19;;;30.54;62.99
30152;BME280;16963;26.018;-80.216;2022-08-11T02:38:30;102036.09;;;30.40;61.68
30152;BME280;16963;26.018;-80.216;2022-08-11T02:44:43;102044.22;;;30.40;62.81
30152;BME280;16963;26.018;-80.216;2022-08-11T02:50:21;102040.66;;;30.39;63.26
30152;BME280;16963;26.018;-80.216;2022-08-11T02:53:12;102037.59;;;30.44;63.74
30152;BME280;16963;26.018;-80.216;2022-08-11T02:55:57;102037.59;;;30.44;63.65
30152;BME280;16963;26.018;-80.216;2022-08-11T02:58:48;102040.31;;;30.44;63.52
30152;BME280;16963;26.018;-80.216;2022-08-11T03:01:47;102043.47;;;30.38;63.06
30152;BME280;16963;26.018;-80.216;2022-08-11T03:04:30;102043.97;;;30.32;64.31
30152;BME280;16963;26.018;-80.216;2022-08-11T03:09:58;102040.97;;;30.24;64.40
30152;BME280;16963;26.018;-80.216;2022-08-11T03:12:40;102039.22;;;30.23;63.94
30152;BME280;16963;26.018;-80.216;2022-08-11T03:16:17;102050.03;;;30.23;63.42
30152;BME280;16963;26.018;-80.216;2022-08-11T03:25:07;102039.47;;;30.19;63.68
30152;BME280;16963;26.018;-80.216;2022-08-11T03:33:17;102042.91;;;30.22;64.80
30152;BME280;16963;26.018;-80.216;2022-08-11T03:40:47;102043.97;;;30.19;64.94
30152;BME280;16963;26.018;-80.216;2022-08-11T03:46:57;102041.16;;;30.20;63.96
30152;BME280;16963;26.018;-80.216;2022-08-11T03:55:13;102034.25;;;30.16;64.88
30152;BME280;16963;26.018;-80.216;2022-08-11T03:58:05;102040.66;;;30.15;64.77
30152;BME280;16963;26.018;-80.216;2022-08-11T04:16:04;102034.25;;;30.16;64.99
30152;BME280;16963;26.018;-80.216;2022-08-11T04:21:49;102037.97;;;30.15;65.60
30152;BME280;16963;26.018;-80.216;2022-08-11T04:30:12;102025.00;;;30.08;66.59
30152;BME280;16963;26.018;-80.216;2022-08-11T04:50:56;102030.97;;;30.00;65.92
30152;BME280;16963;26.018;-80.216;2022-08-11T04:57:19;102024.59;;;30.01;65.13
30152;BME280;16963;26.018;-80.216;2022-08-11T05:00:12;102018.53;;;29.97;65.38
30152;BME280;16963;26.018;-80.216;2022-08-11T05:17:08;102022.84;;;30.00;65.43
30152;BME280;16963;26.018;-80.216;2022-08-11T05:19:57;102021.38;;;29.96;65.34
30152;BME280;16963;26.018;-80.216;2022-08-11T05:22:50;102014.97;;;29.97;65.51
30152;BME280;16963;26.018;-80.216;2022-08-11T05:25:54;102009.69;;;29.95;66.02
30152;BME280;16963;26.018;-80.216;2022-08-11T05:29:04;102019.00;;;29.91;66.11
30152;BME280;16963;26.018;-80.216;2022-08-11T05:32:14;102010.13;;;29.89;65.99
30152;BME280;16963;26.018;-80.216;2022-08-11T05:35:05;102016.66;;;29.87;65.16
30152;BME280;16963;26.018;-80.216;2022-08-11T05:37:43;102008.41;;;29.88;65.46
30152;BME280;16963;26.018;-80.216;2022-08-11T05:40:31;102007.56;;;29.88;65.06
30152;BME280;16963;26.018;-80.216;2022-08-11T05:43:23;102012.09;;;29.87;65.48
30152;BME280;16963;26.018;-80.216;2022-08-11T05:46:20;102007.78;;;29.85;63.42
30152;BME280;16963;26.018;-80.216;2022-08-11T05:49:10;102008.03;;;29.82;63.43
30152;BME280;16963;26.018;-80.216;2022-08-11T05:51:59;102009.97;;;29.79;63.22
30152;BME280;16963;26.018;-80.216;2022-08-11T05:55:04;102005.41;;;29.80;62.78
30152;BME280;16963;26.018;-80.216;2022-08-11T05:57:56;101998.91;;;29.83;63.32
30152;BME280;16963;26.018;-80.216;2022-08-11T06:00:32;101998.91;;;29.83;63.42
30152;BME280;16963;26.018;-80.216;2022-08-11T06:03:19;102006.06;;;29.84;64.11
30152;BME280;16963;26.018;-80.216;2022-08-11T06:07:53;102004.56;;;29.79;64.10
30152;BME280;16963;26.018;-80.216;2022-08-11T06:10:44;102003.47;;;29.82;64.30
30152;BME280;16963;26.018;-80.216;2022-08-11T06:13:16;101996.31;;;29.81;64.18
30152;BME280;16963;26.018;-80.216;2022-08-11T06:15:51;101982.78;;;29.81;64.52
30152;BME280;16963;26.018;-80.216;2022-08-11T06:18:23;101987.59;;;29.77;64.52
30152;BME280;16963;26.018;-80.216;2022-08-11T06:20:55;101984.88;;;29.77;64.84
30152;BME280;16963;26.018;-80.216;2022-08-11T06:23:31;101977.72;;;29.76;64.62
30152;BME280;16963;26.018;-80.216;2022-08-11T06:26:47;101988.53;;;29.76;64.33
30152;BME280;16963;26.018;-80.216;2022-08-11T06:29:43;101981.41;;;29.75;64.84
30152;BME280;16963;26.018;-80.216;2022-08-11T06:32:24;101984.88;;;29.77;65.12
30152;BME280;16963;26.018;-80.216;2022-08-11T06:35:14;101984.63;;;29.81;65.21
30152;BME280;16963;26.018;-80.216;2022-08-11T06:38:06;101978.59;;;29.77;65.66
30152;BME280;16963;26.018;-80.216;2022-08-11T06:41:04;101966.03;;;29.76;65.48
30152;BME280;16963;26.018;-80.216;2022-08-11T06:48:05;101960.97;;;29.71;65.36
30152;BME280;16963;26.018;-80.216;2022-08-11T06:50:51;101962.38;;;29.77;65.44
30152;BME280;16963;26.018;-80.216;2022-08-11T06:53:51;101947.00;;;29.77;65.68
30152;BME280;16963;26.018;-80.216;2022-08-11T06:56:35;101953.25;;;29.78;65.97
30152;BME280;16963;26.018;-80.216;2022-08-11T06:59:44;101948.94;;;29.75;65.63
30152;BME280;16963;26.018;-80.216;2022-08-11T07:02:33;101950.81;;;29.75;65.78
30152;BME280;16963;26.018;-80.216;2022-08-11T07:14:37;101933.38;;;29.66;66.33
30152;BME280;16963;26.018;-80.216;2022-08-11T07:17:27;101938.78;;;29.66;66.97
30152;BME280;16963;26.018;-80.216;2022-08-11T07:20:01;101936.06;;;29.66;67.03
30152;BME280;16963;26.018;-80.216;2022-08-11T07:22:57;101935.09;;;29.67;67.53
30152;BME280;16963;26.018;-80.216;2022-08-11T07:28:40;101919.09;;;29.64;67.74
30152;BME280;16963;26.018;-80.216;2022-08-11T07:31:36;101928.19;;;29.63;67.32
30152;BME280;16963;26.018;-80.216;2022-08-11T07:36:57;101923.25;;;29.57;66.12
30152;BME280;16963;26.018;-80.216;2022-08-11T07:39:31;101927.91;;;29.55;67.28
30152;BME280;16963;26.018;-80.216;2022-08-11T07:42:08;101928.91;;;29.54;67.91
30152;BME280;16963;26.018;-80.216;2022-08-11T07:44:40;101919.16;;;29.51;67.24
30152;BME280;16963;26.018;-80.216;2022-08-11T07:50:05;101922.75;;;29.52;67.00
30152;BME280;16963;26.018;-80.216;2022-08-11T07:52:53;101924.56;;;29.51;67.65
30152;BME280;16963;26.018;-80.216;2022-08-11T07:55:26;101914.63;;;29.52;67.27
30152;BME280;16963;26.018;-80.216;2022-08-11T07:58:21;101914.28;;;29.56;67.51
30152;BME280;16963;26.018;-80.216;2022-08-11T08:01:23;101910.47;;;29.59;66.06
30152;BME280;16963;26.018;-80.216;2022-08-11T08:04:13;101907.03;;;29.57;66.67
30152;BME280;16963;26.018;-80.216;2022-08-11T08:07:04;101912.44;;;29.57;67.24
30152;BME280;16963;26.018;-80.216;2022-08-11T08:09:54;101918.09;;;29.54;67.57
30152;BME280;16963;26.018;-80.216;2022-08-11T08:15:41;101908.22;;;29.53;67.76
30152;BME280;16963;26.018;-80.216;2022-08-11T08:18:33;101908.00;;;29.56;67.55
30152;BME280;16963;26.018;-80.216;2022-08-11T08:21:04;101908.75;;;29.58;67.54
30152;BME280;16963;26.018;-80.216;2022-08-11T08:23:46;101905.06;;;29.59;67.54
30152;BME280;16963;26.018;-80.216;2022-08-11T08:26:22;101908.75;;;29.58;67.51
30152;BME280;16963;26.018;-80.216;2022-08-11T08:29:26;101897.94;;;29.58;67.44
30152;BME280;16963;26.018;-80.216;2022-08-11T08:32:17;101891.88;;;29.54;67.71
30152;BME280;16963;26.018;-80.216;2022-08-11T08:37:24;101888.44;;;29.52;67.80
30152;BME280;16963;26.018;-80.216;2022-08-11T08:40:14;101882.38;;;29.49;68.06
30152;BME280;16963;26.018;-80.216;2022-08-11T08:42:56;101886.94;;;29.48;67.84
30152;BME280;16963;26.018;-80.216;2022-08-11T08:45:26;101891.72;;;29.45;67.65
30152;BME280;16963;26.018;-80.216;2022-08-11T08:50:36;101882.84;;;29.43;68.09
30152;BME280;16963;26.018;-80.216;2022-08-11T08:53:33;101883.72;;;29.43;67.18
30152;BME280;16963;26.018;-80.216;2022-08-11T08:56:26;101880.88;;;29.45;67.66
30152;BME280;16963;26.018;-80.216;2022-08-11T08:58:58;101875.47;;;29.45;67.63
30152;BME280;16963;26.018;-80.216;2022-08-11T09:01:45;101879.69;;;29.49;67.57
30152;BME280;16963;26.018;-80.216;2022-08-11T09:04:16;101876.00;;;29.50;67.60
30152;BME280;16963;26.018;-80.216;2022-08-11T09:06:47;101881.28;;;29.51;68.16
30152;BME280;16963;26.018;-80.216;2022-08-11T09:09:22;101870.72;;;29.48;68.74
30152;BME280;16963;26.018;-80.216;2022-08-11T09:11:51;101870.94;;;29.45;68.08
30152;BME280;16963;26.018;-80.216;2022-08-11T09:14:26;101873.78;;;29.44;68.58
30152;BME280;16963;26.018;-80.216;2022-08-11T09:19:03;101874.44;;;29.34;67.82
30152;BME280;16963;26.018;-80.216;2022-08-11T09:21:31;101880.50;;;29.38;68.33
30152;BME280;16963;26.018;-80.216;2022-08-11T09:24:18;101882.09;;;29.41;68.80
30152;BME280;16963;26.018;-80.216;2022-08-11T09:27:06;101882.00;;;29.42;68.66
30152;BME280;16963;26.018;-80.216;2022-08-11T09:29:37;101888.03;;;29.46;68.61
30152;BME280;16963;26.018;-80.216;2022-08-11T09:32:11;101879.19;;;29.44;68.43
30152;BME280;16963;26.018;-80.216;2022-08-11T09:34:41;101885.44;;;29.44;68.00
30152;BME280;16963;26.018;-80.216;2022-08-11T09:37:27;101886.09;;;29.48;68.17
30152;BME280;16963;26.018;-80.216;2022-08-11T09:40:25;101888.53;;;29.51;67.73
30152;BME280;16963;26.018;-80.216;2022-08-11T09:43:02;101885.09;;;29.49;67.52
30152;BME280;16963;26.018;-80.216;2022-08-11T09:45:53;101886.09;;;29.48;67.48
30152;BME280;16963;26.018;-80.216;2022-08-11T09:48:28;101890.59;;;29.47;66.81
30152;BME280;16963;26.018;-80.216;2022-08-11T09:51:00;101895.41;;;29.44;66.56
30152;BME280;16963;26.018;-80.216;2022-08-11T09:53:35;101899.31;;;29.39;67.10
30152;BME280;16963;26.018;-80.216;2022-08-11T09:56:15;101902.88;;;29.40;67.25
30152;BME280;16963;26.018;-80.216;2022-08-11T09:59:02;101892.91;;;29.41;66.89
30152;BME280;16963;26.018;-80.216;2022-08-11T10:01:58;101887.16;;;29.69;66.41
30152;BME280;16963;26.018;-80.216;2022-08-11T10:04:42;101899.00;;;29.55;67.06
30152;BME280;16963;26.018;-80.216;2022-08-11T10:07:15;101893.19;;;29.49;67.21
30152;BME280;16963;26.018;-80.216;2022-08-11T10:09:53;101896.00;;;29.47;67.01
30152;BME280;16963;26.018;-80.216;2022-08-11T10:12:28;101895.25;;;29.45;67.52
30152;BME280;16963;26.018;-80.216;2022-08-11T10:15:03;101898.72;;;29.47;67.57
30152;BME280;16963;26.018;-80.216;2022-08-11T10:17:55;101902.31;;;29.48;67.40
30152;BME280;16963;26.018;-80.216;2022-08-11T10:20:44;101902.31;;;29.48;67.54
30152;BME280;16963;26.018;-80.216;2022-08-11T10:23:17;101895.25;;;29.45;67.88
30152;BME280;16963;26.018;-80.216;2022-08-11T10:26:13;101909.69;;;29.46;67.69
30152;BME280;16963;26.018;-80.216;2022-08-11T10:29:02;101905.22;;;29.45;67.41
30152;BME280;16963;26.018;-80.216;2022-08-11T10:32:05;101906.44;;;29.41;67.63
30152;BME280;16963;26.018;-80.216;2022-08-11T10:34:58;101906.69;;;29.37;68.07
30152;BME280;16963;26.018;-80.216;2022-08-11T10:37:32;101903.97;;;29.37;68.04
30152;BME280;16963;26.018;-80.216;2022-08-11T10:40:24;101910.59;;;29.33;68.46
30152;BME280;16963;26.018;-80.216;2022-08-11T10:42:58;101912.53;;;29.31;68.42
30152;BME280;16963;26.018;-80.216;2022-08-11T10:45:47;101915.44;;;29.28;68.19
30152;BME280;16963;26.018;-80.216;2022-08-11T10:48:37;101915.44;;;29.28;68.13
30152;BME280;16963;26.018;-80.216;2022-08-11T10:51:07;101911.03;;;29.27;68.52
30152;BME280;16963;26.018;-80.216;2022-08-11T10:53:51;101912.00;;;29.26;67.83
30152;BME280;16963;26.018;-80.216;2022-08-11T10:56:41;101911.28;;;29.24;68.29
30152;BME280;16963;26.018;-80.216;2022-08-11T10:59:33;101914.19;;;29.21;67.86
30152;BME280;16963;26.018;-80.216;2022-08-11T11:02:04;101913.44;;;29.19;68.17
30152;BME280;16963;26.018;-80.216;2022-08-11T11:04:41;101912.47;;;29.20;67.77
30152;BME280;16963;26.018;-80.216;2022-08-11T11:07:22;101909.63;;;29.22;68.29
30152;BME280;16963;26.018;-80.216;2022-08-11T11:10:00;101914.09;;;29.23;67.66
30152;BME280;16963;26.018;-80.216;2022-08-11T11:12:37;101914.94;;;29.23;67.57
30152;BME280;16963;26.018;-80.216;2022-08-11T11:15:28;101918.41;;;29.25;67.33
30152;BME280;16963;26.018;-80.216;2022-08-11T11:18:23;101920.09;;;29.26;66.63
30152;BME280;16963;26.018;-80.216;2022-08-11T11:34:41;101923.31;;;29.44;65.98
30152;BME280;16963;26.018;-80.216;2022-08-11T11:37:24;101927.41;;;29.50;66.20
30152;BME280;16963;26.018;-80.216;2022-08-11T11:39:53;101925.44;;;29.52;65.75
30152;BME280;16963;26.018;-80.216;2022-08-11T11:42:27;101925.94;;;29.57;65.80
30152;BME280;16963;26.018;-80.216;2022-08-11T11:44:57;101929.31;;;29.61;65.46
30152;BME280;16963;26.018;-80.216;2022-08-11T11:47:30;101926.88;;;29.69;63.96
30152;BME280;16963;26.018;-80.216;2022-08-11T11:49:59;101930.00;;;29.75;63.74
30152;BME280;16963;26.018;-80.216;2022-08-11T11:54:16;101932.00;;;29.85;63.41
30152;BME280;16963;26.018;-80.216;2022-08-11T11:56:45;101925.28;;;29.90;63.07
30152;BME280;16963;26.018;-80.216;2022-08-11T11:59:13;101929.97;;;29.99;63.37
30152;BME280;16963;26.018;-80.216;2022-08-11T12:02:08;101927.94;;;30.14;63.34
30152;BME280;16963;26.018;-80.216;2022-08-11T12:04:40;101934.34;;;30.25;62.20
30152;BME280;16963;26.018;-80.216;2022-08-11T12:07:11;101943.41;;;30.36;61.75
30152;BME280;16963;26.018;-80.216;2022-08-11T12:09:58;101930.13;;;30.45;61.47
30152;BME280;16963;26.018;-80.216;2022-08-11T12:12:44;101931.50;;;30.62;61.95
30152;BME280;16963;26.018;-80.216;2022-08-11T12:18:11;101939.16;;;30.79;61.22
30152;BME280;16963;26.018;-80.216;2022-08-11T12:20:44;101938.66;;;30.85;61.06
30152;BME280;16963;26.018;-80.216;2022-08-11T12:23:13;101935.59;;;30.90;61.06
30152;BME280;16963;26.018;-80.216;2022-08-11T12:26:01;101947.06;;;30.93;61.09
30152;BME280;16963;26.018;-80.216;2022-08-11T12:28:54;101941.66;;;30.93;60.92
30152;BME280;16963;26.018;-80.216;2022-08-11T12:31:24;101940.06;;;30.91;61.03
30152;BME280;16963;26.018;-80.216;2022-08-11T12:33:52;101948.78;;;30.94;61.25
30152;BME280;16963;26.018;-80.216;2022-08-11T12:36:40;101949.03;;;30.91;61.82
30152;BME280;16963;26.018;-80.216;2022-08-11T12:39:26;101945.06;;;31.18;61.96
30152;BME280;16963;26.018;-80.216;2022-08-11T12:42:34;101949.72;;;30.82;62.38
30152;BME280;16963;26.018;-80.216;2022-08-11T12:45:25;101954.41;;;30.69;63.04
30152;BME280;16963;26.018;-80.216;2022-08-11T12:48:17;101946.03;;;30.60;63.22
30152;BME280;16963;26.018;-80.216;2022-08-11T12:51:29;101951.91;;;30.54;63.25
30152;BME280;16963;26.018;-80.216;2022-08-11T12:54:58;101948.00;;;30.58;63.07
30152;BME280;16963;26.018;-80.216;2022-08-11T13:00:13;101946.53;;;31.22;59.57
30152;BME280;16963;26.018;-80.216;2022-08-11T13:03:02;101950.25;;;31.21;59.54
30152;BME280;16963;26.018;-80.216;2022-08-11T13:05:54;101945.06;;;31.18;59.81
30152;BME280;16963;26.018;-80.216;2022-08-11T13:08:25;101946.78;;;31.19;59.53
30152;BME280;16963;26.018;-80.216;2022-08-11T13:10:56;101958.88;;;31.15;59.93
30152;BME280;16963;26.018;-80.216;2022-08-11T13:13:48;101950.75;;;31.15;60.35
30152;BME280;16963;26.018;-80.216;2022-08-11T13:16:29;101952.69;;;31.24;60.65
30152;BME280;16963;26.018;-80.216;2022-08-11T13:21:54;101961.09;;;31.44;59.30
30152;BME280;16963;26.018;-80.216;2022-08-11T13:24:26;101960.59;;;31.50;59.79
30152;BME280;16963;26.018;-80.216;2022-08-11T13:26:54;101959.31;;;31.54;59.85
30152;BME280;16963;26.018;-80.216;2022-08-11T13:29:25;101960.03;;;31.56;59.37
30152;BME280;16963;26.018;-80.216;2022-08-11T13:31:56;101963.25;;;31.61;59.43
30152;BME280;16963;26.018;-80.216;2022-08-11T13:34:28;101965.31;;;31.69;58.85
30152;BME280;16963;26.018;-80.216;2022-08-11T13:37:01;101960.50;;;31.72;58.78
30152;BME280;16963;26.018;-80.216;2022-08-11T13:39:33;101959.19;;;31.88;58.85
30152;BME280;16963;26.018;-80.216;2022-08-11T13:42:14;101957.34;;;31.99;58.48
30152;BME280;16963;26.018;-80.216;2022-08-11T13:44:45;101959.41;;;32.07;58.54
30152;BME280;16963;26.018;-80.216;2022-08-11T13:47:14;101975.84;;;32.27;57.85
30152;BME280;16963;26.018;-80.216;2022-08-11T13:49:43;101973.94;;;32.38;57.89
30152;BME280;16963;26.018;-80.216;2022-08-11T13:52:15;101966.56;;;32.50;57.00
30152;BME280;16963;26.018;-80.216;2022-08-11T13:54:45;101967.78;;;32.57;56.35
30152;BME280;16963;26.018;-80.216;2022-08-11T13:57:14;101975.94;;;32.57;56.72
30152;BME280;16963;26.018;-80.216;2022-08-11T14:00:07;101975.72;;;32.49;56.93
30152;BME280;16963;26.018;-80.216;2022-08-11T14:04:22;101973.41;;;32.24;57.53
30152;BME280;16963;26.018;-80.216;2022-08-11T14:07:00;101982.94;;;32.18;57.28
30152;BME280;16963;26.018;-80.216;2022-08-11T14:09:36;101972.66;;;32.22;58.01
30152;BME280;16963;26.018;-80.216;2022-08-11T14:12:11;101973.94;;;32.17;57.18
30152;BME280;16963;26.018;-80.216;2022-08-11T14:15:05;101979.34;;;32.17;57.57
30152;BME280;16963;26.018;-80.216;2022-08-11T14:17:37;101983.91;;;32.38;57.12
30152;BME280;16963;26.018;-80.216;2022-08-11T14:20:22;101992.69;;;32.63;56.02
30152;BME280;16963;26.018;-80.216;2022-08-11T14:25:42;101966.16;;;33.07;55.35
30152;BME280;16963;26.018;-80.216;2022-08-11T14:28:33;101979.28;;;33.32;55.06
30152;BME280;16963;26.018;-80.216;2022-08-11T14:31:08;101983.63;;;33.54;54.06
30152;BME280;16963;26.018;-80.216;2022-08-11T14:33:37;101983.34;;;33.57;53.69
30152;BME280;16963;26.018;-80.216;2022-08-11T14:36:34;101982.75;;;33.54;54.72
30152;BME280;16963;26.018;-80.216;2022-08-11T14:39:09;101986.41;;;33.74;53.31
30152;BME280;16963;26.018;-80.216;2022-08-11T14:41:50;101994.00;;;33.90;52.60
30152;BME280;16963;26.018;-80.216;2022-08-11T14:46:54;101984.84;;;33.81;53.26
30152;BME280;16963;26.018;-80.216;2022-08-11T14:49:53;101992.00;;;33.82;52.57
30152;BME280;16963;26.018;-80.216;2022-08-11T14:55:35;101988.72;;;34.17;52.17
30152;BME280;16963;26.018;-80.216;2022-08-11T14:58:25;101989.25;;;34.50;51.59
30152;BME280;16963;26.018;-80.216;2022-08-11T15:00:59;101986.75;;;34.76;50.13
30152;BME280;16963;26.018;-80.216;2022-08-11T15:03:32;101980.47;;;34.76;50.24
30152;BME280;16963;26.018;-80.216;2022-08-11T15:06:24;101980.44;;;34.86;50.69
30152;BME280;16963;26.018;-80.216;2022-08-11T15:09:00;101979.19;;;35.08;50.08
30152;BME280;16963;26.018;-80.216;2022-08-11T15:11:37;101991.81;;;35.09;49.51
30152;BME280;16963;26.018;-80.216;2022-08-11T15:14:24;101993.88;;;34.97;49.22
30152;BME280;16963;26.018;-80.216;2022-08-11T15:17:12;102003.03;;;35.15;49.00
30152;BME280;16963;26.018;-80.216;2022-08-11T15:19:44;101996.19;;;35.29;48.44
30152;BME280;16963;26.018;-80.216;2022-08-11T15:22:32;101994.69;;;35.45;48.13
30152;BME280;16963;26.018;-80.216;2022-08-11T15:25:33;101997.03;;;35.57;47.84
30152;BME280;16963;26.018;-80.216;2022-08-11T15:28:09;101994.09;;;36.05;46.33
30152;BME280;16963;26.018;-80.216;2022-08-11T15:30:59;101995.75;;;35.79;47.05
30152;BME280;16963;26.018;-80.216;2022-08-11T15:33:53;101993.63;;;35.73;47.04
30152;BME280;16963;26.018;-80.216;2022-08-11T15:36:47;102007.09;;;35.57;47.11
30152;BME280;16963;26.018;-80.216;2022-08-11T15:39:49;101986.16;;;35.48;47.85
30152;BME280;16963;26.018;-80.216;2022-08-11T15:46:24;102009.03;;;35.47;47.22
30152;BME280;16963;26.018;-80.216;2022-08-11T15:54:30;101999.44;;;35.42;47.19
30152;BME280;16963;26.018;-80.216;2022-08-11T15:57:01;102006.13;;;35.20;47.66
30152;BME280;16963;26.018;-80.216;2022-08-11T15:59:35;102014.53;;;34.99;48.66
30152;BME280;16963;26.018;-80.216;2022-08-11T16:02:23;102006.66;;;34.96;48.54
30152;BME280;16963;26.018;-80.216;2022-08-11T16:05:02;102010.22;;;35.07;47.75
30152;BME280;16963;26.018;-80.216;2022-08-11T16:07:34;102008.81;;;35.30;47.72
30152;BME280;16963;26.018;-80.216;2022-08-11T16:10:09;102011.84;;;35.55;47.88
30152;BME280;16963;26.018;-80.216;2022-08-11T16:13:02;102008.72;;;35.95;46.45
30152;BME280;16963;26.018;-80.216;2022-08-11T16:15:37;102008.84;;;35.94;45.82
30152;BME280;16963;26.018;-80.216;2022-08-11T16:18:29;102002.47;;;35.85;46.45
30152;BME280;16963;26.018;-80.216;2022-08-11T16:21:16;102003.53;;;36.10;45.33
30152;BME280;16963;26.018;-80.216;2022-08-11T16:24:05;101986.84;;;36.13;45.88
30152;BME280;16963;26.018;-80.216;2022-08-11T16:27:01;101979.75;;;36.20;46.31
30152;BME280;16963;26.018;-80.216;2022-08-11T16:29:46;101990.16;;;36.43;44.94
30152;BME280;16963;26.018;-80.216;2022-08-11T16:32:17;101994.72;;;36.60;44.84
30152;BME280;16963;26.018;-80.216;2022-08-11T16:35:53;101988.72;;;36.83;44.05
30152;BME280;16963;26.018;-80.216;2022-08-11T16:38:42;101981.84;;;37.05;43.68
30152;BME280;16963;26.018;-80.216;2022-08-11T16:41:14;101979.66;;;37.17;43.67
30152;BME280;16963;26.018;-80.216;2022-08-11T16:44:05;101979.41;;;37.36;44.14
30152;BME280;16963;26.018;-80.216;2022-08-11T16:47:09;101980.53;;;37.60;43.09
30152;BME280;16963;26.018;-80.216;2022-08-11T16:49:43;101972.63;;;37.65;41.16
30152;BME280;16963;26.018;-80.216;2022-08-11T16:52:21;101966.78;;;37.52;41.63
30152;BME280;16963;26.018;-80.216;2022-08-11T16:56:28;101955.09;;;37.41;42.56
30152;BME280;16963;26.018;-80.216;2022-08-11T16:59:00;101963.69;;;37.55;42.63
30152;BME280;16963;26.018;-80.216;2022-08-11T17:01:53;101958.53;;;37.43;42.13
30152;BME280;16963;26.018;-80.216;2022-08-11T17:07:44;101958.31;;;36.60;44.82
30152;BME280;16963;26.018;-80.216;2022-08-11T17:10:40;101955.19;;;36.73;45.23
30152;BME280;16963;26.018;-80.216;2022-08-11T17:13:41;101950.41;;;36.83;44.68
30152;BME280;16963;26.018;-80.216;2022-08-11T17:17:36;101945.94;;;36.74;44.85
30152;BME280;16963;26.018;-80.216;2022-08-11T17:20:06;101940.00;;;36.87;44.40
30152;BME280;16963;26.018;-80.216;2022-08-11T17:23:04;101949.66;;;36.99;43.33
30152;BME280;16963;26.018;-80.216;2022-08-11T17:25:53;101953.19;;;37.26;42.87
30152;BME280;16963;26.018;-80.216;2022-08-11T17:28:33;101951.69;;;37.39;43.48
30152;BME280;16963;26.018;-80.216;2022-08-11T17:31:02;101936.97;;;37.40;43.11
30152;BME280;16963;26.018;-80.216;2022-08-11T17:33:54;101938.75;;;37.58;42.84
30152;BME280;16963;26.018;-80.216;2022-08-11T17:38:46;101940.31;;;38.18;41.31
30152;BME280;16963;26.018;-80.216;2022-08-11T17:41:15;101929.03;;;38.05;41.51
30152;BME280;16963;26.018;-80.216;2022-08-11T17:44:05;101932.28;;;38.08;41.07
30152;BME280;16963;26.018;-80.216;2022-08-11T17:46:52;101935.69;;;38.18;41.41
30152;BME280;16963;26.018;-80.216;2022-08-11T17:49:39;101931.94;;;37.87;42.53
30152;BME280;16963;26.018;-80.216;2022-08-11T17:52:09;101928.50;;;37.76;43.43
30152;BME280;16963;26.018;-80.216;2022-08-11T17:55:03;101917.88;;;37.90;42.38
30152;BME280;16963;26.018;-80.216;2022-08-11T17:58:13;101920.97;;;37.87;43.31
30152;BME280;16963;26.018;-80.216;2022-08-11T18:01:07;101924.38;;;38.13;42.47
30152;BME280;16963;26.018;-80.216;2022-08-11T18:03:42;101913.75;;;37.94;42.65
30152;BME280;16963;26.018;-80.216;2022-08-11T18:06:27;101914.09;;;38.07;42.80
30152;BME280;16963;26.018;-80.216;2022-08-11T18:09:09;101916.81;;;38.32;43.01
30152;BME280;16963;26.018;-80.216;2022-08-11T18:12:04;101915.31;;;38.21;43.48
30152;BME280;16963;26.018;-80.216;2022-08-11T18:14:54;101912.34;;;38.31;42.04